Pagina principale
METAR-TAF:

METAR-TAF

Aeroporti :

Aeroporto Internazionale di Lusaka

Lusaka, Zambia

latitudine: 15-19-51S, longitudine: 028-27-09E, altezza: 1152 m

Osservazione

Il bollettino è stato emesso 2 ore e 6 minuti fa, alle 11:00 UTC
Vento 3 kt da est/sud-est
Temperature 23°C
Umidità 78%
Pressione 1020 hPa
Visibilità 10 km o più
Nubi sparse ad un'altezza di 1500 ft
Nuvoloso ad un'altezza di 10000 ft

METAR: FLKK 171100Z 11003KT 9999 SCT015 BKN100 23/19 Q1020

Ora: 15:06 (13:06 UTC)


TAF: mancante

Osservazioni e previsioni meteorologiche di più di 4000 aeroporti (messaggi METAR e TAF).

Le stazioni disponibili sono rappresentate dai dischi gialli e rossi sulla carta.

Puntare il mouse per vedere il nome della stazione.

Clicca sopra per visualizzare le osservazioni e previsioni meteorologiche.

Per cambiare la mappa : fare clic sui pulsanti verdi con una croce nera per ingrandire, il pulsante verde con un trattino per diminuire, o sulla freccia verde per le mappe adiacenti.


METAR-TAF: